createdAt,value
2022-11-21T00:00:00.024Z,36.83
2022-11-21T00:01:17.433Z,37.78
2022-11-21T00:02:19.739Z,32.72
2022-11-21T00:03:24.612Z,39.10
2022-11-21T00:04:27.115Z,34.78
2022-11-21T00:05:31.210Z,36.03
2022-11-21T00:06:33.492Z,32.63
2022-11-21T00:07:35.948Z,37.83
2022-11-21T00:08:38.430Z,32.25
2022-11-21T00:09:40.768Z,37.40
2022-11-21T00:10:43.662Z,35.28
2022-11-21T00:11:46.985Z,38.25
2022-11-21T00:12:58.654Z,38.03
2022-11-21T00:14:01.360Z,32.35
2022-11-21T00:15:06.763Z,34.67
2022-11-21T00:16:14.936Z,33.10
2022-11-21T00:18:36.822Z,32.42
2022-11-21T00:19:39.054Z,34.25
2022-11-21T00:20:42.281Z,33.40
2022-11-21T00:21:55.825Z,33.85
2022-11-21T00:23:05.328Z,31.05
2022-11-21T00:24:13.464Z,33.47
2022-11-21T00:25:19.427Z,34.95
2022-11-21T00:26:22.250Z,32.55
2022-11-21T00:27:24.635Z,34.30
2022-11-21T00:28:35.905Z,33.13
2022-11-21T00:29:46.104Z,33.78
2022-11-21T00:30:58.493Z,31.48
2022-11-21T00:32:02.880Z,32.25
2022-11-21T00:34:24.255Z,32.15
2022-11-21T00:35:29.999Z,32.42
2022-11-21T00:36:32.909Z,28.77
2022-11-21T00:37:35.271Z,30.58
2022-11-21T00:38:38.421Z,31.30
2022-11-21T00:39:40.724Z,33.92
2022-11-21T00:40:48.863Z,34.97
2022-11-21T00:41:54.218Z,32.65
2022-11-21T00:42:56.539Z,30.63
2022-11-21T00:44:01.255Z,33.25
2022-11-21T00:45:07.144Z,36.85
2022-11-21T00:46:09.414Z,35.05
2022-11-21T00:47:16.096Z,29.35
2022-11-21T00:48:18.350Z,36.47
2022-11-21T00:49:31.791Z,31.88
2022-11-21T00:50:34.133Z,31.40
2022-11-21T00:51:44.256Z,34.75
2022-11-21T00:52:49.924Z,34.13
2022-11-21T00:53:52.141Z,34.70
2022-11-21T00:54:56.810Z,32.83
2022-11-21T00:56:02.121Z,28.90
2022-11-21T00:57:13.442Z,32.88
2022-11-21T00:58:15.729Z,33.20
2022-11-21T00:59:18.001Z,32.17
2022-11-21T01:00:21.146Z,32.58
2022-11-21T01:01:23.757Z,32.40
2022-11-21T01:02:33.381Z,32.55
2022-11-21T01:03:36.039Z,31.63
2022-11-21T01:04:38.425Z,32.05
2022-11-21T01:05:42.776Z,30.48
2022-11-21T01:07:50.464Z,30.48
2022-11-21T01:08:53.626Z,25.73
2022-11-21T01:09:56.551Z,31.58
2022-11-21T01:11:09.664Z,34.90
2022-11-21T01:12:12.104Z,30.40
2022-11-21T01:13:14.429Z,31.33
2022-11-21T01:14:23.031Z,33.22
2022-11-21T01:15:27.955Z,30.50
2022-11-21T01:16:31.204Z,31.60
2022-11-21T01:17:34.094Z,33.90
2022-11-21T01:18:38.310Z,34.90
2022-11-21T01:19:43.376Z,32.03
2022-11-21T01:20:47.603Z,32.75
2022-11-21T01:21:49.846Z,32.88
2022-11-21T01:22:53.254Z,31.40
2022-11-21T01:24:04.551Z,33.72
2022-11-21T01:25:10.308Z,33.80
2022-11-21T01:26:23.101Z,31.92
2022-11-21T01:27:28.765Z,33.05
2022-11-21T01:28:39.716Z,36.15
2022-11-21T01:29:42.249Z,39.53
2022-11-21T01:30:47.413Z,33.15
2022-11-21T01:31:53.495Z,33.17
2022-11-21T01:33:06.185Z,33.38
2022-11-21T01:34:12.857Z,32.47
2022-11-21T01:35:19.664Z,35.90
2022-11-21T01:36:26.159Z,33.17
2022-11-21T01:37:46.207Z,33.15
2022-11-21T01:38:56.861Z,33.20
2022-11-21T01:40:01.635Z,32.80
2022-11-21T01:41:07.331Z,30.88
2022-11-21T01:42:15.419Z,33.60
2022-11-21T01:43:28.044Z,34.03
2022-11-21T01:44:54.660Z,32.92
2022-11-21T01:46:04.874Z,36.55
2022-11-21T01:47:16.737Z,34.78
2022-11-21T01:48:29.609Z,31.95
2022-11-21T01:49:33.079Z,37.17
2022-11-21T01:50:37.552Z,35.33
2022-11-21T01:51:59.204Z,36.50
2022-11-21T01:53:07.231Z,33.65
2022-11-21T01:54:20.804Z,31.23
2022-11-21T01:55:25.546Z,39.55
2022-11-21T01:56:30.886Z,32.05
2022-11-21T01:57:50.103Z,29.92
2022-11-21T01:59:07.224Z,30.08
2022-11-21T02:00:20.656Z,29.58
2022-11-21T02:01:23.668Z,32.95
2022-11-21T02:02:36.664Z,32.92
2022-11-21T02:03:43.991Z,31.50
2022-11-21T02:04:52.939Z,32.83
2022-11-21T02:05:59.977Z,33.80
2022-11-21T02:07:33.609Z,33.72
2022-11-21T02:08:37.295Z,35.50
2022-11-21T02:09:54.176Z,34.75
2022-11-21T02:11:32.036Z,37.15
2022-11-21T02:12:50.406Z,39.78
2022-11-21T02:13:55.832Z,31.73
2022-11-21T02:15:08.809Z,35.17
2022-11-21T02:16:14.458Z,37.80
2022-11-21T02:17:21.444Z,40.45
2022-11-21T02:18:26.372Z,34.90
2022-11-21T02:19:51.562Z,33.95
2022-11-21T02:21:03.552Z,38.58
2022-11-21T02:22:20.533Z,40.72
2022-11-21T02:25:12.784Z,38.85
2022-11-21T02:26:49.066Z,35.72
2022-11-21T02:27:58.216Z,39.88
2022-11-21T02:29:00.525Z,39.30
2022-11-21T02:30:04.411Z,39.63
2022-11-21T02:31:13.990Z,38.25
2022-11-21T02:32:36.654Z,43.00
2022-11-21T02:33:48.680Z,44.10
2022-11-21T02:34:56.237Z,43.53
2022-11-21T02:36:42.043Z,40.65
2022-11-21T02:37:48.381Z,35.92
2022-11-21T02:38:58.205Z,40.22
2022-11-21T02:40:05.723Z,39.08
2022-11-21T02:41:27.700Z,39.88
2022-11-21T02:43:17.334Z,42.28
2022-11-21T02:44:34.476Z,37.70
2022-11-21T02:45:47.023Z,43.53
2022-11-21T02:46:54.149Z,41.42
2022-11-21T02:48:03.900Z,42.83
2022-11-21T02:49:16.710Z,46.88
2022-11-21T02:50:35.116Z,41.22
2022-11-21T02:51:37.362Z,43.90
2022-11-21T02:52:39.700Z,40.92
2022-11-21T02:53:46.452Z,38.97
2022-11-21T02:54:53.647Z,41.85
2022-11-21T02:55:57.385Z,36.80
2022-11-21T02:57:10.106Z,35.45
2022-11-21T02:58:27.197Z,42.05
2022-11-21T02:59:32.439Z,36.33
2022-11-21T03:00:36.244Z,39.65
2022-11-21T03:01:43.787Z,40.90
2022-11-21T03:02:46.480Z,38.83
2022-11-21T03:03:48.863Z,38.53
2022-11-21T03:04:53.340Z,39.33
2022-11-21T03:06:01.462Z,40.38
2022-11-21T03:07:20.355Z,34.92
2022-11-21T03:08:25.112Z,40.10
2022-11-21T03:09:27.553Z,35.70
2022-11-21T03:10:37.147Z,43.80
2022-11-21T03:11:41.301Z,39.40
2022-11-21T03:12:44.274Z,43.38
2022-11-21T03:13:46.603Z,43.72
2022-11-21T03:14:49.106Z,43.47
2022-11-21T03:15:53.010Z,39.20
2022-11-21T03:16:59.108Z,42.13
2022-11-21T03:18:10.427Z,40.08
2022-11-21T03:19:12.950Z,42.88
2022-11-21T03:20:15.396Z,41.25
2022-11-21T03:21:21.582Z,45.95
2022-11-21T03:22:26.762Z,41.85
2022-11-21T03:23:37.795Z,41.10
2022-11-21T03:24:43.083Z,45.45
2022-11-21T03:26:18.841Z,45.42
2022-11-21T03:27:31.012Z,43.67
2022-11-21T03:28:33.376Z,41.25
2022-11-21T03:29:37.074Z,43.30
2022-11-21T03:30:41.768Z,43.70
2022-11-21T03:31:51.216Z,41.30
2022-11-21T03:32:59.807Z,40.65
2022-11-21T03:34:02.319Z,41.20
2022-11-21T03:35:08.831Z,41.47
2022-11-21T03:36:21.146Z,37.42
2022-11-21T03:37:28.366Z,41.63
2022-11-21T03:38:31.168Z,40.45
2022-11-21T03:39:35.340Z,40.58
2022-11-21T03:40:37.748Z,40.53
2022-11-21T03:41:40.039Z,37.83
2022-11-21T03:42:42.564Z,40.53
2022-11-21T03:43:45.507Z,33.42
2022-11-21T03:44:58.029Z,36.80
2022-11-21T03:46:04.007Z,35.30
2022-11-21T03:47:09.332Z,35.08
2022-11-21T03:48:20.150Z,37.03
2022-11-21T03:49:27.919Z,38.33
2022-11-21T03:50:32.747Z,42.70
2022-11-21T03:51:36.204Z,35.13
2022-11-21T03:52:38.530Z,37.33
2022-11-21T03:53:44.228Z,37.50
2022-11-21T03:54:49.866Z,41.05
2022-11-21T03:55:55.092Z,39.15
2022-11-21T03:56:57.328Z,35.53
2022-11-21T03:58:00.120Z,36.90
2022-11-21T03:59:06.391Z,37.47
2022-11-21T04:00:21.316Z,37.90
2022-11-21T04:01:36.366Z,39.47
2022-11-21T04:02:46.652Z,38.50
2022-11-21T04:03:52.533Z,35.75
2022-11-21T04:05:00.202Z,39.85
2022-11-21T04:06:06.868Z,41.20
2022-11-21T04:07:09.611Z,40.53
2022-11-21T04:08:22.394Z,46.53
2022-11-21T04:09:25.584Z,40.45
2022-11-21T04:10:31.540Z,50.80
2022-11-21T04:11:40.317Z,48.42
2022-11-21T04:12:49.468Z,44.33
2022-11-21T04:13:57.357Z,36.88
2022-11-21T04:15:02.787Z,38.25
2022-11-21T04:16:14.289Z,40.28
2022-11-21T04:17:18.522Z,38.00
2022-11-21T04:18:22.498Z,41.53
2022-11-21T04:19:29.970Z,38.00
2022-11-21T04:20:32.256Z,33.92
2022-11-21T04:21:51.407Z,42.17
2022-11-21T04:24:25.428Z,42.30
2022-11-21T04:25:28.380Z,39.22
2022-11-21T04:26:32.162Z,32.83
2022-11-21T04:27:35.755Z,43.80
2022-11-21T04:28:44.280Z,44.92
2022-11-21T04:29:49.816Z,38.30
2022-11-21T04:31:00.745Z,36.17
2022-11-21T04:32:08.194Z,35.38
2022-11-21T04:33:15.502Z,40.90
2022-11-21T04:34:18.483Z,42.50
2022-11-21T04:35:22.137Z,36.90
2022-11-21T04:36:24.408Z,44.08
2022-11-21T04:37:33.512Z,54.17
2022-11-21T04:38:37.327Z,51.63
2022-11-21T04:39:45.832Z,55.92
2022-11-21T04:40:48.246Z,50.60
2022-11-21T04:41:51.887Z,47.03
2022-11-21T04:43:05.038Z,39.88
2022-11-21T04:44:16.543Z,39.63
2022-11-21T04:45:23.405Z,34.90
2022-11-21T04:46:27.540Z,43.38
2022-11-21T04:47:46.380Z,39.03
2022-11-21T04:48:51.570Z,39.65
2022-11-21T04:49:57.385Z,35.88
2022-11-21T04:51:02.630Z,39.22
2022-11-21T04:52:12.550Z,42.00
2022-11-21T04:53:17.554Z,38.78
2022-11-21T04:55:44.531Z,35.05
2022-11-21T04:56:48.335Z,33.33
2022-11-21T04:59:16.734Z,28.65
2022-11-21T05:00:24.535Z,36.00
2022-11-21T05:01:30.103Z,36.03
2022-11-21T05:02:42.468Z,39.15
2022-11-21T05:03:47.519Z,36.55
2022-11-21T05:04:50.510Z,36.53
2022-11-21T05:05:53.363Z,34.00
2022-11-21T05:06:59.927Z,29.98
2022-11-21T05:08:03.549Z,36.30
2022-11-21T05:09:05.785Z,34.25
2022-11-21T05:10:09.465Z,40.90
2022-11-21T05:11:34.312Z,37.88
2022-11-21T05:12:55.400Z,37.20
2022-11-21T05:13:57.768Z,31.52
2022-11-21T05:15:00.090Z,37.88
2022-11-21T05:16:02.467Z,36.17
2022-11-21T05:17:04.893Z,37.08
2022-11-21T05:18:07.976Z,35.30
2022-11-21T05:19:10.374Z,37.60
2022-11-21T05:20:13.475Z,35.00
2022-11-21T05:21:18.132Z,33.88
2022-11-21T05:22:20.588Z,37.95
2022-11-21T05:23:23.399Z,38.95
2022-11-21T05:24:26.297Z,38.65
2022-11-21T05:25:28.939Z,37.80
2022-11-21T05:26:31.935Z,35.35
2022-11-21T05:27:34.233Z,34.53
2022-11-21T05:28:36.828Z,37.85
2022-11-21T05:30:43.254Z,31.60
2022-11-21T05:31:45.734Z,37.17
2022-11-21T05:32:48.148Z,33.50
2022-11-21T05:33:50.498Z,33.97
2022-11-21T05:34:56.937Z,37.30
2022-11-21T05:36:01.006Z,36.40
2022-11-21T05:37:03.465Z,34.08
2022-11-21T05:38:05.708Z,33.88
2022-11-21T05:39:10.409Z,34.05
2022-11-21T05:41:34.642Z,41.28
2022-11-21T05:43:02.420Z,44.05
2022-11-21T05:44:05.455Z,34.70
2022-11-21T05:45:10.970Z,34.47
2022-11-21T05:46:22.584Z,36.20
2022-11-21T05:47:26.312Z,37.90
2022-11-21T05:48:31.070Z,34.72
2022-11-21T05:49:33.416Z,38.80
2022-11-21T05:50:36.634Z,39.65
2022-11-21T05:51:39.826Z,41.70
2022-11-21T05:52:58.041Z,40.17
2022-11-21T05:54:02.255Z,43.03
2022-11-21T05:55:06.321Z,41.30
2022-11-21T05:56:20.470Z,52.10
2022-11-21T05:57:23.792Z,50.50
2022-11-21T05:58:31.653Z,67.65
2022-11-21T05:59:39.965Z,54.90
2022-11-21T06:00:44.599Z,40.80
2022-11-21T06:02:05.356Z,47.70
2022-11-21T06:03:28.596Z,45.15
2022-11-21T06:04:33.484Z,37.72
2022-11-21T06:05:35.900Z,35.47
2022-11-21T06:06:41.838Z,44.67
2022-11-21T06:07:47.135Z,38.20
2022-11-21T06:08:50.201Z,39.05
2022-11-21T06:09:52.835Z,35.50
2022-11-21T06:10:56.862Z,38.20
2022-11-21T06:11:59.287Z,37.10
2022-11-21T06:13:02.389Z,35.67
2022-11-21T06:14:05.724Z,38.10
2022-11-21T06:15:09.436Z,38.20
2022-11-21T06:16:19.871Z,40.88
2022-11-21T06:17:22.794Z,35.90
2022-11-21T06:18:25.616Z,40.80
2022-11-21T06:19:27.904Z,45.53
2022-11-21T06:20:30.186Z,44.28
2022-11-21T06:21:35.064Z,41.67
2022-11-21T06:22:37.352Z,41.40
2022-11-21T06:23:54.060Z,42.85
2022-11-21T06:24:59.605Z,44.00
2022-11-21T06:26:09.954Z,46.45
2022-11-21T06:27:14.483Z,51.15
2022-11-21T06:28:17.022Z,43.67
2022-11-21T06:29:22.765Z,44.20
2022-11-21T06:30:25.247Z,57.17
2022-11-21T06:31:32.352Z,53.72
2022-11-21T06:32:38.419Z,49.35
2022-11-21T06:33:49.552Z,51.92
2022-11-21T06:35:54.024Z,47.28
2022-11-21T06:36:57.316Z,49.35
2022-11-21T06:37:59.587Z,47.40
2022-11-21T06:39:02.395Z,51.95
2022-11-21T06:40:08.218Z,50.58
2022-11-21T06:41:24.320Z,44.63
2022-11-21T06:42:30.825Z,55.20
2022-11-21T06:43:34.564Z,50.45
2022-11-21T06:44:36.968Z,53.95
2022-11-21T06:45:39.252Z,53.83
2022-11-21T06:46:51.504Z,51.08
2022-11-21T06:48:01.675Z,48.45
2022-11-21T06:49:04.220Z,50.90
2022-11-21T06:50:07.073Z,51.25
2022-11-21T06:51:42.095Z,59.15
2022-11-21T06:52:44.348Z,57.20
2022-11-21T06:53:48.345Z,55.65
2022-11-21T06:54:50.956Z,54.17
2022-11-21T06:55:53.312Z,54.35
2022-11-21T06:56:55.797Z,48.53
2022-11-21T06:57:59.471Z,43.75
2022-11-21T06:59:02.123Z,40.00
2022-11-21T07:00:05.869Z,40.97
2022-11-21T07:01:11.040Z,38.42
2022-11-21T07:02:13.748Z,43.25
2022-11-21T07:03:16.164Z,35.90
2022-11-21T07:04:18.718Z,44.28
2022-11-21T07:05:21.135Z,40.03
2022-11-21T07:06:24.179Z,40.72
2022-11-21T07:07:26.529Z,47.05
2022-11-21T07:08:31.650Z,49.20
2022-11-21T07:09:35.954Z,46.58
2022-11-21T07:11:41.006Z,38.97
2022-11-21T07:13:01.901Z,45.22
2022-11-21T07:14:08.963Z,39.67
2022-11-21T07:15:12.104Z,39.50
2022-11-21T07:16:14.506Z,43.10
2022-11-21T07:17:19.859Z,44.30
2022-11-21T07:18:25.111Z,42.55
2022-11-21T07:19:30.197Z,40.05
2022-11-21T07:20:32.761Z,45.83
2022-11-21T07:21:35.162Z,45.83
2022-11-21T07:22:37.590Z,49.10
2022-11-21T07:23:54.599Z,54.60
2022-11-21T07:24:57.042Z,49.00
2022-11-21T07:26:04.595Z,47.00
2022-11-21T07:27:06.935Z,46.90
2022-11-21T07:28:10.347Z,46.33
2022-11-21T07:29:12.858Z,42.80
2022-11-21T07:30:15.985Z,41.70
2022-11-21T07:31:18.308Z,40.28
2022-11-21T07:32:20.622Z,40.80
2022-11-21T07:33:22.994Z,44.72
2022-11-21T07:34:25.216Z,44.22
2022-11-21T07:35:28.345Z,37.60
2022-11-21T07:36:33.023Z,45.90
2022-11-21T07:37:40.285Z,42.25
2022-11-21T07:38:42.721Z,41.72
2022-11-21T07:39:45.213Z,44.92
2022-11-21T07:40:47.424Z,48.58
2022-11-21T07:41:49.687Z,45.45
2022-11-21T07:42:52.084Z,40.35
2022-11-21T07:43:55.162Z,43.95
2022-11-21T07:44:57.387Z,41.38
2022-11-21T07:45:59.678Z,40.25
2022-11-21T07:47:02.034Z,40.45
2022-11-21T07:48:07.160Z,35.65
2022-11-21T07:49:09.825Z,39.80
2022-11-21T07:50:13.798Z,46.17
2022-11-21T07:51:16.099Z,42.45
2022-11-21T07:52:18.558Z,37.20
2022-11-21T07:53:20.883Z,42.17
2022-11-21T07:54:23.160Z,39.30
2022-11-21T07:55:25.993Z,38.03
2022-11-21T07:56:28.930Z,42.47
2022-11-21T07:57:31.835Z,42.35
2022-11-21T07:58:34.466Z,38.15
2022-11-21T07:59:37.481Z,37.20
2022-11-21T08:00:43.089Z,39.55
2022-11-21T08:01:46.301Z,44.15
2022-11-21T08:02:48.536Z,43.50
2022-11-21T08:03:51.779Z,38.83
2022-11-21T08:04:54.889Z,39.72
2022-11-21T08:05:57.646Z,45.55
2022-11-21T08:07:01.355Z,40.58
2022-11-21T08:08:03.696Z,42.08
2022-11-21T08:09:05.961Z,41.63
2022-11-21T08:10:08.589Z,42.50
2022-11-21T08:11:11.100Z,47.72
2022-11-21T08:12:14.405Z,47.40
2022-11-21T08:13:16.605Z,44.50
2022-11-21T08:14:19.042Z,44.20
2022-11-21T08:15:21.683Z,44.70
2022-11-21T08:16:28.167Z,47.88
2022-11-21T08:17:30.689Z,46.50
2022-11-21T08:18:32.994Z,38.58
2022-11-21T08:19:35.367Z,40.10
2022-11-21T08:20:38.145Z,40.65
2022-11-21T08:21:40.401Z,41.53
2022-11-21T08:22:42.782Z,41.85
2022-11-21T08:23:44.988Z,43.55
2022-11-21T08:24:47.347Z,44.40
2022-11-21T08:25:52.032Z,45.00
2022-11-21T08:26:54.359Z,44.78
2022-11-21T08:27:58.298Z,41.97
2022-11-21T08:29:00.739Z,40.58
2022-11-21T08:30:05.113Z,44.05
2022-11-21T08:31:07.352Z,44.47
2022-11-21T08:32:09.745Z,62.45
2022-11-21T08:33:12.098Z,57.55
2022-11-21T08:34:16.966Z,52.17
2022-11-21T08:35:19.389Z,44.47
2022-11-21T08:36:21.614Z,38.20
2022-11-21T08:37:23.898Z,36.05
2022-11-21T08:38:26.456Z,33.30
2022-11-21T08:39:31.293Z,34.33
2022-11-21T08:40:35.307Z,35.88
2022-11-21T08:41:56.127Z,36.22
2022-11-21T08:43:04.839Z,37.47
2022-11-21T08:44:11.174Z,35.67
2022-11-21T08:45:16.157Z,37.05
2022-11-21T08:46:18.902Z,32.70
2022-11-21T08:47:21.451Z,37.58
2022-11-21T08:48:24.136Z,33.17
2022-11-21T08:49:27.285Z,31.80
2022-11-21T08:50:29.945Z,36.60
2022-11-21T08:51:32.275Z,40.88
2022-11-21T08:52:34.708Z,43.75
2022-11-21T08:53:39.353Z,42.17
2022-11-21T08:54:41.849Z,38.90
2022-11-21T08:55:44.293Z,39.60
2022-11-21T08:56:46.955Z,38.55
2022-11-21T08:57:49.372Z,36.60
2022-11-21T08:58:51.770Z,50.08
2022-11-21T08:59:54.088Z,39.85
2022-11-21T09:00:56.338Z,33.20
2022-11-21T09:01:58.820Z,43.03
2022-11-21T09:03:05.529Z,56.47
2022-11-21T09:04:08.694Z,42.58
2022-11-21T09:05:11.072Z,32.85
2022-11-21T09:06:13.563Z,32.72
2022-11-21T09:07:16.178Z,39.35
2022-11-21T09:08:18.657Z,38.40
2022-11-21T09:09:25.352Z,42.72
2022-11-21T09:10:29.597Z,82.00
2022-11-21T09:11:32.250Z,45.47
2022-11-21T09:12:34.515Z,41.10
2022-11-21T09:13:37.395Z,34.40
2022-11-21T09:14:58.633Z,36.83
2022-11-21T09:16:20.798Z,33.00
2022-11-21T09:17:42.100Z,53.17
2022-11-21T09:18:44.732Z,40.60
2022-11-21T09:19:47.100Z,42.58
2022-11-21T09:20:49.646Z,38.45
2022-11-21T09:21:52.754Z,52.45
2022-11-21T09:22:55.111Z,69.63
2022-11-21T09:23:57.283Z,46.20
2022-11-21T09:24:59.552Z,50.40
2022-11-21T09:26:02.373Z,73.22
2022-11-21T09:27:05.080Z,92.97
2022-11-21T09:28:12.051Z,70.18
2022-11-21T09:29:17.194Z,59.78
2022-11-21T09:30:19.571Z,52.90
2022-11-21T09:31:21.879Z,116.22
2022-11-21T09:32:24.497Z,90.80
2022-11-21T09:33:26.739Z,38.42
2022-11-21T09:34:31.884Z,42.67
2022-11-21T09:35:34.718Z,34.38
2022-11-21T09:36:38.043Z,33.42
2022-11-21T09:37:40.664Z,39.00
2022-11-21T09:38:45.293Z,46.38
2022-11-21T09:39:49.075Z,40.22
2022-11-21T09:40:51.877Z,36.88
2022-11-21T09:42:21.056Z,33.15
2022-11-21T09:43:27.907Z,35.97
2022-11-21T09:44:47.202Z,32.85
2022-11-21T09:46:08.627Z,32.58
2022-11-21T09:47:24.310Z,35.80
2022-11-21T09:48:45.837Z,34.05
2022-11-21T09:49:53.885Z,34.10
2022-11-21T09:51:01.635Z,27.95
2022-11-21T09:52:04.369Z,36.80
2022-11-21T09:53:31.415Z,38.80
2022-11-21T09:54:37.466Z,36.53
2022-11-21T09:55:47.109Z,33.70
2022-11-21T09:56:50.867Z,36.72
2022-11-21T09:57:53.931Z,33.22
2022-11-21T09:59:14.203Z,29.75
2022-11-21T10:00:21.629Z,31.58
2022-11-21T10:01:24.424Z,28.98
2022-11-21T10:02:27.000Z,32.92
2022-11-21T10:03:40.968Z,32.08
2022-11-21T10:04:43.931Z,33.85
2022-11-21T10:06:00.773Z,31.30
2022-11-21T10:07:04.744Z,30.80
2022-11-21T10:08:36.275Z,31.05
2022-11-21T10:10:03.237Z,33.83
2022-11-21T10:11:24.066Z,31.88
2022-11-21T10:12:40.936Z,33.78
2022-11-21T10:13:55.656Z,31.98
2022-11-21T10:15:40.583Z,30.33
2022-11-21T10:17:18.666Z,27.85
2022-11-21T10:18:57.011Z,29.77
2022-11-21T10:20:18.676Z,26.83
2022-11-21T10:22:36.823Z,25.73
2022-11-21T10:23:54.428Z,29.33
2022-11-21T10:25:04.479Z,28.42
2022-11-21T10:26:35.648Z,27.42
2022-11-21T10:27:47.025Z,27.90
2022-11-21T10:28:58.440Z,29.23
2022-11-21T10:30:11.094Z,29.42
2022-11-21T10:31:15.584Z,33.05
2022-11-21T10:33:41.750Z,27.45
2022-11-21T10:34:45.147Z,25.77
2022-11-21T10:36:24.259Z,24.60
2022-11-21T10:37:39.626Z,25.88
2022-11-21T10:39:03.783Z,28.05
2022-11-21T10:40:32.433Z,27.60
2022-11-21T10:42:04.404Z,25.60
2022-11-21T10:43:43.925Z,23.75
2022-11-21T10:45:07.699Z,19.52
2022-11-21T10:46:12.737Z,26.38
2022-11-21T10:47:30.279Z,22.65
2022-11-21T10:48:32.773Z,23.58
2022-11-21T10:49:42.557Z,22.55
2022-11-21T10:51:06.990Z,22.30
2022-11-21T10:52:16.630Z,18.83
2022-11-21T10:53:39.974Z,19.73
2022-11-21T10:55:01.247Z,21.38
2022-11-21T10:56:08.220Z,17.55
2022-11-21T10:57:18.397Z,19.85
2022-11-21T10:58:51.765Z,17.88
2022-11-21T10:59:58.367Z,21.20
2022-11-21T11:01:00.675Z,18.83
2022-11-21T11:02:25.469Z,21.45
2022-11-21T11:03:30.320Z,17.98
2022-11-21T11:04:41.680Z,17.23
2022-11-21T11:05:59.455Z,18.25
2022-11-21T11:07:28.695Z,16.75
2022-11-21T11:08:50.947Z,19.05
2022-11-21T11:10:13.874Z,15.85
2022-11-21T11:12:49.175Z,18.63
2022-11-21T11:13:57.516Z,14.68
2022-11-21T11:14:59.799Z,15.60
2022-11-21T11:16:07.557Z,20.48
2022-11-21T11:17:15.538Z,16.85
2022-11-21T11:18:22.309Z,15.82
2022-11-21T11:19:35.391Z,16.45
2022-11-21T11:20:45.101Z,17.55
2022-11-21T11:21:49.444Z,14.68
2022-11-21T11:22:51.993Z,19.83
2022-11-21T11:24:07.424Z,26.45
2022-11-21T11:25:10.220Z,26.60
2022-11-21T11:26:32.924Z,19.23
2022-11-21T11:27:37.707Z,15.07
2022-11-21T11:28:40.274Z,14.15
2022-11-21T11:29:51.440Z,19.67
2022-11-21T11:30:55.968Z,16.38
2022-11-21T11:32:20.914Z,17.00
2022-11-21T11:33:34.496Z,17.08
2022-11-21T11:34:42.610Z,21.58
2022-11-21T11:35:45.058Z,17.35
2022-11-21T11:37:23.945Z,13.73
2022-11-21T11:38:28.780Z,18.73
2022-11-21T11:40:07.482Z,16.45
2022-11-21T11:41:19.923Z,16.92
2022-11-21T11:43:02.456Z,16.20
2022-11-21T11:44:31.077Z,20.05
2022-11-21T11:46:52.829Z,20.42
2022-11-21T11:47:57.099Z,19.25
2022-11-21T11:49:20.406Z,17.67
2022-11-21T11:50:32.858Z,24.40
2022-11-21T11:51:47.006Z,18.40
2022-11-21T11:53:04.400Z,14.10
2022-11-21T11:54:35.465Z,15.32
2022-11-21T11:55:42.104Z,17.25
2022-11-21T11:56:47.406Z,15.32
2022-11-21T11:57:53.406Z,14.43
2022-11-21T11:59:29.482Z,14.32
2022-11-21T12:00:40.484Z,16.10
2022-11-21T12:01:50.591Z,17.60
2022-11-21T12:03:14.527Z,18.35
2022-11-21T12:04:19.373Z,12.93
2022-11-21T12:05:27.387Z,14.52
2022-11-21T12:08:41.496Z,18.42
2022-11-21T12:10:03.623Z,18.83
2022-11-21T12:11:39.410Z,22.50
2022-11-21T12:13:56.664Z,19.63
2022-11-21T12:15:37.523Z,19.95
2022-11-21T12:16:41.935Z,15.60
2022-11-21T12:17:54.798Z,17.90
2022-11-21T12:19:14.442Z,17.73
2022-11-21T12:20:45.370Z,18.00
2022-11-21T12:21:48.158Z,16.42
2022-11-21T12:22:52.344Z,16.92
2022-11-21T12:23:57.699Z,22.38
2022-11-21T12:24:59.973Z,22.60
2022-11-21T12:26:20.547Z,26.50
2022-11-21T12:27:32.649Z,24.85
2022-11-21T12:28:58.441Z,22.35
2022-11-21T12:30:20.538Z,21.90
2022-11-21T12:31:31.783Z,23.27
2022-11-21T12:32:40.194Z,20.48
2022-11-21T12:33:58.904Z,16.88
2022-11-21T12:35:03.844Z,21.20
2022-11-21T12:36:38.546Z,16.70
2022-11-21T12:37:47.206Z,20.20
2022-11-21T12:39:06.100Z,16.33
2022-11-21T12:40:40.522Z,19.15
2022-11-21T12:42:19.301Z,17.85
2022-11-21T12:43:24.900Z,16.42
2022-11-21T12:44:37.236Z,17.95
2022-11-21T12:45:49.592Z,15.85
2022-11-21T12:47:20.255Z,16.25
2022-11-21T12:48:56.145Z,19.65
2022-11-21T12:50:48.247Z,15.32
2022-11-21T12:52:18.078Z,17.92
2022-11-21T12:54:04.584Z,16.38
2022-11-21T12:55:18.090Z,20.25
2022-11-21T12:56:32.734Z,21.67
2022-11-21T12:58:08.192Z,20.65
2022-11-21T12:59:14.350Z,24.85
2022-11-21T13:00:30.285Z,22.40
2022-11-21T13:02:12.998Z,22.80
2022-11-21T13:03:21.409Z,19.58
2022-11-21T13:04:29.445Z,22.77
2022-11-21T13:05:39.242Z,25.30
2022-11-21T13:06:44.546Z,22.83
2022-11-21T13:07:49.101Z,23.05
2022-11-21T13:08:54.660Z,22.75
2022-11-21T13:10:01.725Z,25.20
2022-11-21T13:11:46.062Z,21.75
2022-11-21T13:12:54.060Z,22.65
2022-11-21T13:14:21.246Z,25.08
2022-11-21T13:15:40.717Z,24.77
2022-11-21T13:16:49.845Z,21.83
2022-11-21T13:18:20.298Z,23.20
2022-11-21T13:19:29.261Z,24.55
2022-11-21T13:20:39.615Z,25.42
2022-11-21T13:21:50.298Z,27.10
2022-11-21T13:22:58.111Z,26.55
2022-11-21T13:24:00.450Z,28.55
2022-11-21T13:25:31.891Z,23.27
2022-11-21T13:26:34.109Z,22.75
2022-11-21T13:27:40.754Z,33.92
2022-11-21T13:28:47.236Z,24.27
2022-11-21T13:30:07.788Z,27.33
2022-11-21T13:31:30.107Z,23.83
2022-11-21T13:32:43.958Z,25.88
2022-11-21T13:33:48.333Z,30.05
2022-11-21T13:34:50.760Z,25.38
2022-11-21T13:35:52.988Z,25.55
2022-11-21T13:36:56.029Z,25.67
2022-11-21T13:38:04.448Z,24.70
2022-11-21T13:39:07.934Z,26.67
2022-11-21T13:40:28.131Z,24.45
2022-11-21T13:41:55.163Z,26.15
2022-11-21T13:43:32.201Z,29.58
2022-11-21T13:44:32.819Z,33.63
2022-11-21T13:45:51.320Z,31.52
2022-11-21T13:47:12.557Z,36.35
2022-11-21T13:48:34.779Z,35.63
2022-11-21T13:49:47.069Z,30.88
2022-11-21T13:51:12.607Z,33.35
2022-11-21T13:52:20.906Z,32.85
2022-11-21T13:53:32.510Z,34.72
2022-11-21T13:54:39.843Z,34.63
2022-11-21T13:55:56.158Z,33.53
2022-11-21T13:57:08.302Z,31.88
2022-11-21T13:58:49.011Z,36.67
2022-11-21T14:00:06.080Z,35.45
2022-11-21T14:01:17.285Z,32.60
2022-11-21T14:02:51.891Z,31.10
2022-11-21T14:04:09.481Z,37.22
2022-11-21T14:05:39.863Z,38.50
2022-11-21T14:06:45.821Z,36.67
2022-11-21T14:07:48.597Z,43.00
2022-11-21T14:09:15.218Z,40.67
2022-11-21T14:10:34.263Z,45.05
2022-11-21T14:11:49.995Z,49.22
2022-11-21T14:12:54.952Z,46.85
2022-11-21T14:13:57.765Z,49.78
2022-11-21T14:15:07.067Z,45.47
2022-11-21T14:16:35.010Z,44.03
2022-11-21T14:17:49.833Z,53.20
2022-11-21T14:18:53.369Z,46.92
2022-11-21T14:19:57.947Z,49.08
2022-11-21T14:21:01.956Z,49.45
2022-11-21T14:22:04.163Z,46.38
2022-11-21T14:23:20.298Z,41.88
2022-11-21T14:24:23.204Z,40.03
2022-11-21T14:25:32.262Z,43.55
2022-11-21T14:26:47.273Z,53.97
2022-11-21T14:27:53.311Z,42.80
2022-11-21T14:29:29.386Z,45.10
2022-11-21T14:30:43.931Z,43.40
2022-11-21T14:31:47.594Z,38.83
2022-11-21T14:32:54.114Z,40.22
2022-11-21T14:33:58.494Z,45.28
2022-11-21T14:35:18.839Z,48.72
2022-11-21T14:36:30.105Z,47.60
2022-11-21T14:37:32.609Z,45.58
2022-11-21T14:38:41.392Z,40.80
2022-11-21T14:39:49.017Z,40.75
2022-11-21T14:41:23.149Z,41.35
2022-11-21T14:42:35.872Z,46.47
2022-11-21T14:43:38.278Z,54.70
2022-11-21T14:44:40.908Z,58.47
2022-11-21T14:45:49.791Z,62.80
2022-11-21T14:47:06.100Z,118.00
2022-11-21T14:48:12.777Z,89.43
2022-11-21T14:49:17.968Z,144.48
2022-11-21T14:50:31.105Z,144.63
2022-11-21T14:51:33.786Z,131.48
2022-11-21T14:52:36.134Z,118.15
2022-11-21T14:53:42.989Z,93.15
2022-11-21T14:55:27.914Z,105.55
2022-11-21T14:56:23.689Z,58.20
2022-11-21T14:57:30.280Z,65.18
2022-11-21T14:58:33.001Z,51.20
2022-11-21T14:59:41.898Z,60.63
2022-11-21T15:01:03.180Z,61.92
2022-11-21T15:02:17.657Z,51.75
2022-11-21T15:03:24.254Z,55.65
2022-11-21T15:04:35.668Z,48.80
2022-11-21T15:07:01.187Z,50.33
2022-11-21T15:08:24.368Z,51.78
2022-11-21T15:10:26.052Z,44.38
2022-11-21T15:10:49.305Z,49.40
2022-11-21T15:12:11.306Z,45.42
2022-11-21T15:13:16.299Z,44.78
2022-11-21T15:14:23.575Z,46.50